sensor_id;sensor_type;location;lat;lon;timestamp;P1;durP1;ratioP1;P2;durP2;ratioP2
8895;SDS011;4484;48.928;10.066;2023-04-25T00:05:59;2.10;;;1.90;;
8895;SDS011;4484;48.928;10.066;2023-04-25T00:08:28;2.33;;;1.70;;
8895;SDS011;4484;48.928;10.066;2023-04-25T00:10:56;1.90;;;1.63;;
8895;SDS011;4484;48.928;10.066;2023-04-25T00:13:24;2.40;;;1.53;;
8895;SDS011;4484;48.928;10.066;2023-04-25T00:15:52;2.27;;;1.70;;
8895;SDS011;4484;48.928;10.066;2023-04-25T00:18:22;1.60;;;1.50;;
8895;SDS011;4484;48.928;10.066;2023-04-25T00:20:49;3.60;;;2.00;;
8895;SDS011;4484;48.928;10.066;2023-04-25T00:23:16;2.00;;;1.80;;
8895;SDS011;4484;48.928;10.066;2023-04-25T00:25:47;3.23;;;1.93;;
8895;SDS011;4484;48.928;10.066;2023-04-25T00:28:15;6.77;;;2.23;;
8895;SDS011;4484;48.928;10.066;2023-04-25T00:30:42;2.53;;;1.80;;
8895;SDS011;4484;48.928;10.066;2023-04-25T00:33:09;2.80;;;2.03;;
8895;SDS011;4484;48.928;10.066;2023-04-25T00:35:36;2.23;;;2.00;;
8895;SDS011;4484;48.928;10.066;2023-04-25T00:38:04;4.50;;;1.97;;
8895;SDS011;4484;48.928;10.066;2023-04-25T00:40:31;2.00;;;1.70;;
8895;SDS011;4484;48.928;10.066;2023-04-25T00:42:58;3.00;;;1.90;;
8895;SDS011;4484;48.928;10.066;2023-04-25T00:45:27;2.83;;;1.80;;
8895;SDS011;4484;48.928;10.066;2023-04-25T00:47:55;2.90;;;2.10;;
8895;SDS011;4484;48.928;10.066;2023-04-25T00:50:23;2.47;;;1.90;;
8895;SDS011;4484;48.928;10.066;2023-04-25T00:52:50;5.03;;;1.70;;
8895;SDS011;4484;48.928;10.066;2023-04-25T00:55:18;3.83;;;2.10;;
8895;SDS011;4484;48.928;10.066;2023-04-25T00:57:45;3.40;;;2.10;;
8895;SDS011;4484;48.928;10.066;2023-04-25T01:00:13;4.97;;;2.10;;
8895;SDS011;4484;48.928;10.066;2023-04-25T01:02:42;2.30;;;2.00;;
8895;SDS011;4484;48.928;10.066;2023-04-25T01:05:11;3.20;;;1.93;;
8895;SDS011;4484;48.928;10.066;2023-04-25T01:07:38;3.03;;;1.70;;
8895;SDS011;4484;48.928;10.066;2023-04-25T01:10:05;2.10;;;1.90;;
8895;SDS011;4484;48.928;10.066;2023-04-25T01:12:33;3.17;;;1.80;;
8895;SDS011;4484;48.928;10.066;2023-04-25T01:15:00;2.70;;;2.20;;
8895;SDS011;4484;48.928;10.066;2023-04-25T01:17:27;3.20;;;2.00;;
8895;SDS011;4484;48.928;10.066;2023-04-25T01:19:55;1.70;;;1.60;;
8895;SDS011;4484;48.928;10.066;2023-04-25T01:22:22;1.67;;;1.57;;
8895;SDS011;4484;48.928;10.066;2023-04-25T01:24:50;2.23;;;1.67;;
8895;SDS011;4484;48.928;10.066;2023-04-25T01:27:17;1.67;;;1.57;;
8895;SDS011;4484;48.928;10.066;2023-04-25T01:29:44;2.00;;;1.70;;
8895;SDS011;4484;48.928;10.066;2023-04-25T01:32:12;3.47;;;1.70;;
8895;SDS011;4484;48.928;10.066;2023-04-25T01:34:40;2.10;;;1.90;;
8895;SDS011;4484;48.928;10.066;2023-04-25T01:37:07;2.07;;;1.77;;
8895;SDS011;4484;48.928;10.066;2023-04-25T01:39:33;3.27;;;2.10;;
8895;SDS011;4484;48.928;10.066;2023-04-25T01:42:00;1.73;;;1.50;;
8895;SDS011;4484;48.928;10.066;2023-04-25T01:44:29;2.27;;;1.83;;
8895;SDS011;4484;48.928;10.066;2023-04-25T01:46:56;2.47;;;1.90;;
8895;SDS011;4484;48.928;10.066;2023-04-25T01:49:24;2.20;;;1.87;;
8895;SDS011;4484;48.928;10.066;2023-04-25T01:51:51;5.27;;;2.17;;
8895;SDS011;4484;48.928;10.066;2023-04-25T01:54:18;2.30;;;1.77;;
8895;SDS011;4484;48.928;10.066;2023-04-25T01:56:49;3.07;;;2.20;;
8895;SDS011;4484;48.928;10.066;2023-04-25T01:59:18;2.00;;;1.80;;
8895;SDS011;4484;48.928;10.066;2023-04-25T02:02:05;3.60;;;1.80;;
8895;SDS011;4484;48.928;10.066;2023-04-25T02:04:34;2.70;;;2.20;;
8895;SDS011;4484;48.928;10.066;2023-04-25T02:07:02;2.47;;;1.57;;
8895;SDS011;4484;48.928;10.066;2023-04-25T02:09:43;2.40;;;1.83;;
8895;SDS011;4484;48.928;10.066;2023-04-25T02:12:11;2.47;;;2.10;;
8895;SDS011;4484;48.928;10.066;2023-04-25T02:14:57;3.20;;;2.03;;
8895;SDS011;4484;48.928;10.066;2023-04-25T02:17:40;1.93;;;1.70;;
8895;SDS011;4484;48.928;10.066;2023-04-25T02:20:07;2.60;;;2.07;;
8895;SDS011;4484;48.928;10.066;2023-04-25T02:22:34;3.20;;;1.90;;
8895;SDS011;4484;48.928;10.066;2023-04-25T02:25:04;2.80;;;1.73;;
8895;SDS011;4484;48.928;10.066;2023-04-25T02:27:31;3.97;;;1.53;;
8895;SDS011;4484;48.928;10.066;2023-04-25T02:29:58;2.23;;;1.40;;
8895;SDS011;4484;48.928;10.066;2023-04-25T02:32:25;2.03;;;1.80;;
8895;SDS011;4484;48.928;10.066;2023-04-25T02:34:53;3.23;;;1.70;;
8895;SDS011;4484;48.928;10.066;2023-04-25T02:37:20;2.10;;;1.80;;
8895;SDS011;4484;48.928;10.066;2023-04-25T02:39:47;2.03;;;1.80;;
8895;SDS011;4484;48.928;10.066;2023-04-25T02:42:13;3.63;;;1.90;;
8895;SDS011;4484;48.928;10.066;2023-04-25T02:44:40;2.37;;;1.53;;
8895;SDS011;4484;48.928;10.066;2023-04-25T02:47:07;5.10;;;1.80;;
8895;SDS011;4484;48.928;10.066;2023-04-25T02:49:34;2.57;;;1.77;;
8895;SDS011;4484;48.928;10.066;2023-04-25T02:52:01;2.67;;;1.97;;
8895;SDS011;4484;48.928;10.066;2023-04-25T02:54:27;2.53;;;1.80;;
8895;SDS011;4484;48.928;10.066;2023-04-25T02:56:55;3.43;;;2.00;;
8895;SDS011;4484;48.928;10.066;2023-04-25T02:59:26;2.13;;;1.90;;
8895;SDS011;4484;48.928;10.066;2023-04-25T03:01:52;2.10;;;1.80;;
8895;SDS011;4484;48.928;10.066;2023-04-25T03:04:19;2.00;;;1.80;;
8895;SDS011;4484;48.928;10.066;2023-04-25T03:06:47;1.93;;;1.77;;
8895;SDS011;4484;48.928;10.066;2023-04-25T03:09:14;2.47;;;1.80;;
8895;SDS011;4484;48.928;10.066;2023-04-25T03:11:41;2.20;;;1.67;;
8895;SDS011;4484;48.928;10.066;2023-04-25T03:14:08;1.80;;;1.70;;
8895;SDS011;4484;48.928;10.066;2023-04-25T03:16:34;3.83;;;1.93;;
8895;SDS011;4484;48.928;10.066;2023-04-25T03:19:02;1.97;;;1.50;;
8895;SDS011;4484;48.928;10.066;2023-04-25T03:21:30;4.93;;;1.90;;
8895;SDS011;4484;48.928;10.066;2023-04-25T03:24:01;2.33;;;1.80;;
8895;SDS011;4484;48.928;10.066;2023-04-25T03:26:29;2.60;;;2.40;;
8895;SDS011;4484;48.928;10.066;2023-04-25T03:28:56;2.43;;;1.93;;
8895;SDS011;4484;48.928;10.066;2023-04-25T03:31:23;2.53;;;1.80;;
8895;SDS011;4484;48.928;10.066;2023-04-25T03:33:50;2.40;;;2.00;;
8895;SDS011;4484;48.928;10.066;2023-04-25T03:36:20;2.33;;;1.80;;
8895;SDS011;4484;48.928;10.066;2023-04-25T03:38:47;5.27;;;2.47;;
8895;SDS011;4484;48.928;10.066;2023-04-25T03:41:15;5.87;;;3.63;;
8895;SDS011;4484;48.928;10.066;2023-04-25T03:43:56;6.83;;;3.17;;
8895;SDS011;4484;48.928;10.066;2023-04-25T03:46:22;4.07;;;2.50;;
8895;SDS011;4484;48.928;10.066;2023-04-25T03:48:50;4.33;;;2.23;;
8895;SDS011;4484;48.928;10.066;2023-04-25T03:51:21;3.03;;;2.20;;
8895;SDS011;4484;48.928;10.066;2023-04-25T03:53:48;13.97;;;7.70;;
8895;SDS011;4484;48.928;10.066;2023-04-25T03:56:29;10.47;;;7.47;;
8895;SDS011;4484;48.928;10.066;2023-04-25T03:59:04;10.53;;;8.07;;
8895;SDS011;4484;48.928;10.066;2023-04-25T04:01:31;10.77;;;7.23;;
8895;SDS011;4484;48.928;10.066;2023-04-25T04:03:58;3.97;;;3.40;;
8895;SDS011;4484;48.928;10.066;2023-04-25T04:06:26;3.00;;;2.70;;
8895;SDS011;4484;48.928;10.066;2023-04-25T04:09:00;2.30;;;2.10;;
8895;SDS011;4484;48.928;10.066;2023-04-25T04:11:30;2.87;;;2.50;;
8895;SDS011;4484;48.928;10.066;2023-04-25T04:13:58;3.50;;;2.27;;
8895;SDS011;4484;48.928;10.066;2023-04-25T04:16:26;3.77;;;2.23;;
8895;SDS011;4484;48.928;10.066;2023-04-25T04:18:53;4.30;;;2.30;;
8895;SDS011;4484;48.928;10.066;2023-04-25T04:21:19;2.63;;;2.40;;
8895;SDS011;4484;48.928;10.066;2023-04-25T04:23:46;4.20;;;2.10;;
8895;SDS011;4484;48.928;10.066;2023-04-25T04:26:15;2.57;;;2.10;;
8895;SDS011;4484;48.928;10.066;2023-04-25T04:28:56;3.40;;;2.10;;
8895;SDS011;4484;48.928;10.066;2023-04-25T04:31:49;3.13;;;2.03;;
8895;SDS011;4484;48.928;10.066;2023-04-25T04:34:17;2.50;;;2.30;;
8895;SDS011;4484;48.928;10.066;2023-04-25T04:36:45;2.73;;;2.30;;
8895;SDS011;4484;48.928;10.066;2023-04-25T04:39:13;4.03;;;3.27;;
8895;SDS011;4484;48.928;10.066;2023-04-25T04:42:00;9.53;;;4.17;;
8895;SDS011;4484;48.928;10.066;2023-04-25T04:44:49;4.87;;;3.80;;
8895;SDS011;4484;48.928;10.066;2023-04-25T04:47:34;5.13;;;3.37;;
8895;SDS011;4484;48.928;10.066;2023-04-25T04:50:25;5.30;;;3.23;;
8895;SDS011;4484;48.928;10.066;2023-04-25T04:53:22;9.47;;;4.40;;
8895;SDS011;4484;48.928;10.066;2023-04-25T04:56:01;9.60;;;4.63;;
8895;SDS011;4484;48.928;10.066;2023-04-25T04:58:48;6.80;;;3.73;;
8895;SDS011;4484;48.928;10.066;2023-04-25T05:01:41;6.73;;;4.97;;
8895;SDS011;4484;48.928;10.066;2023-04-25T05:04:08;7.50;;;4.63;;
8895;SDS011;4484;48.928;10.066;2023-04-25T05:06:55;8.33;;;4.00;;
8895;SDS011;4484;48.928;10.066;2023-04-25T05:09:24;5.03;;;3.40;;
8895;SDS011;4484;48.928;10.066;2023-04-25T05:12:05;4.03;;;2.73;;
8895;SDS011;4484;48.928;10.066;2023-04-25T05:14:50;3.93;;;2.83;;
8895;SDS011;4484;48.928;10.066;2023-04-25T05:17:35;5.20;;;2.50;;
8895;SDS011;4484;48.928;10.066;2023-04-25T05:20:21;2.87;;;2.57;;
8895;SDS011;4484;48.928;10.066;2023-04-25T05:22:53;4.57;;;3.17;;
8895;SDS011;4484;48.928;10.066;2023-04-25T05:25:43;2.73;;;2.23;;
8895;SDS011;4484;48.928;10.066;2023-04-25T05:28:33;3.40;;;2.67;;
8895;SDS011;4484;48.928;10.066;2023-04-25T05:31:14;4.03;;;3.20;;
8895;SDS011;4484;48.928;10.066;2023-04-25T05:33:48;4.20;;;2.80;;
8895;SDS011;4484;48.928;10.066;2023-04-25T05:36:16;3.80;;;2.70;;
8895;SDS011;4484;48.928;10.066;2023-04-25T05:38:43;2.67;;;2.40;;
8895;SDS011;4484;48.928;10.066;2023-04-25T05:41:30;6.07;;;3.53;;
8895;SDS011;4484;48.928;10.066;2023-04-25T05:44:00;22.73;;;11.53;;
8895;SDS011;4484;48.928;10.066;2023-04-25T05:46:33;30.83;;;16.70;;
8895;SDS011;4484;48.928;10.066;2023-04-25T05:49:23;15.73;;;9.17;;
8895;SDS011;4484;48.928;10.066;2023-04-25T05:52:01;6.30;;;4.90;;
8895;SDS011;4484;48.928;10.066;2023-04-25T05:54:57;5.03;;;3.73;;
8895;SDS011;4484;48.928;10.066;2023-04-25T05:57:24;3.37;;;2.70;;
8895;SDS011;4484;48.928;10.066;2023-04-25T05:59:54;3.50;;;2.40;;
8895;SDS011;4484;48.928;10.066;2023-04-25T06:02:24;3.33;;;2.77;;
8895;SDS011;4484;48.928;10.066;2023-04-25T06:04:52;5.97;;;2.90;;
8895;SDS011;4484;48.928;10.066;2023-04-25T06:07:21;3.10;;;2.27;;
8895;SDS011;4484;48.928;10.066;2023-04-25T06:09:48;3.03;;;2.60;;
8895;SDS011;4484;48.928;10.066;2023-04-25T06:12:15;3.43;;;2.60;;
8895;SDS011;4484;48.928;10.066;2023-04-25T06:14:42;3.27;;;2.63;;
8895;SDS011;4484;48.928;10.066;2023-04-25T06:17:09;4.10;;;2.53;;
8895;SDS011;4484;48.928;10.066;2023-04-25T06:19:35;4.57;;;2.57;;
8895;SDS011;4484;48.928;10.066;2023-04-25T06:22:03;4.57;;;2.83;;
8895;SDS011;4484;48.928;10.066;2023-04-25T06:24:31;4.80;;;2.60;;
8895;SDS011;4484;48.928;10.066;2023-04-25T06:26:58;3.73;;;2.80;;
8895;SDS011;4484;48.928;10.066;2023-04-25T06:29:25;3.40;;;2.57;;
8895;SDS011;4484;48.928;10.066;2023-04-25T06:31:52;3.87;;;2.40;;
8895;SDS011;4484;48.928;10.066;2023-04-25T06:34:20;2.43;;;2.10;;
8895;SDS011;4484;48.928;10.066;2023-04-25T06:36:47;4.33;;;2.30;;
8895;SDS011;4484;48.928;10.066;2023-04-25T06:39:14;3.10;;;2.13;;
8895;SDS011;4484;48.928;10.066;2023-04-25T06:41:42;3.53;;;2.43;;
8895;SDS011;4484;48.928;10.066;2023-04-25T06:44:28;3.63;;;2.53;;
8895;SDS011;4484;48.928;10.066;2023-04-25T06:46:56;3.07;;;2.57;;
8895;SDS011;4484;48.928;10.066;2023-04-25T06:49:23;3.67;;;2.63;;
8895;SDS011;4484;48.928;10.066;2023-04-25T06:51:51;3.07;;;2.77;;
8895;SDS011;4484;48.928;10.066;2023-04-25T06:54:17;4.43;;;3.10;;
8895;SDS011;4484;48.928;10.066;2023-04-25T06:56:55;2.90;;;2.47;;
8895;SDS011;4484;48.928;10.066;2023-04-25T06:59:22;4.63;;;2.67;;
8895;SDS011;4484;48.928;10.066;2023-04-25T07:01:49;3.43;;;2.83;;
8895;SDS011;4484;48.928;10.066;2023-04-25T07:04:20;2.77;;;2.57;;
8895;SDS011;4484;48.928;10.066;2023-04-25T07:06:50;2.60;;;2.40;;
8895;SDS011;4484;48.928;10.066;2023-04-25T07:09:22;4.30;;;2.87;;
8895;SDS011;4484;48.928;10.066;2023-04-25T07:11:50;2.77;;;2.50;;
8895;SDS011;4484;48.928;10.066;2023-04-25T07:14:17;5.63;;;2.90;;
8895;SDS011;4484;48.928;10.066;2023-04-25T07:16:44;3.70;;;2.87;;
8895;SDS011;4484;48.928;10.066;2023-04-25T07:19:11;2.47;;;2.27;;
8895;SDS011;4484;48.928;10.066;2023-04-25T07:21:38;3.40;;;2.90;;
8895;SDS011;4484;48.928;10.066;2023-04-25T07:24:05;4.37;;;3.27;;
8895;SDS011;4484;48.928;10.066;2023-04-25T07:26:37;3.80;;;3.50;;
8895;SDS011;4484;48.928;10.066;2023-04-25T07:29:36;3.97;;;3.50;;
8895;SDS011;4484;48.928;10.066;2023-04-25T07:32:03;4.43;;;3.83;;
8895;SDS011;4484;48.928;10.066;2023-04-25T07:34:30;3.57;;;3.00;;
8895;SDS011;4484;48.928;10.066;2023-04-25T07:36:58;3.50;;;3.20;;
8895;SDS011;4484;48.928;10.066;2023-04-25T07:39:31;3.30;;;2.80;;
8895;SDS011;4484;48.928;10.066;2023-04-25T07:41:59;4.60;;;2.30;;
8895;SDS011;4484;48.928;10.066;2023-04-25T07:44:28;4.27;;;2.47;;
8895;SDS011;4484;48.928;10.066;2023-04-25T07:46:56;2.83;;;2.63;;
8895;SDS011;4484;48.928;10.066;2023-04-25T07:49:23;3.27;;;2.50;;
8895;SDS011;4484;48.928;10.066;2023-04-25T07:51:50;2.40;;;2.03;;
8895;SDS011;4484;48.928;10.066;2023-04-25T07:54:19;2.93;;;2.63;;
8895;SDS011;4484;48.928;10.066;2023-04-25T07:56:51;3.73;;;2.50;;
8895;SDS011;4484;48.928;10.066;2023-04-25T07:59:24;3.23;;;2.20;;
8895;SDS011;4484;48.928;10.066;2023-04-25T08:01:52;4.27;;;2.80;;
8895;SDS011;4484;48.928;10.066;2023-04-25T08:04:21;2.43;;;2.13;;
8895;SDS011;4484;48.928;10.066;2023-04-25T08:06:53;3.07;;;2.60;;
8895;SDS011;4484;48.928;10.066;2023-04-25T08:09:24;2.43;;;2.00;;
8895;SDS011;4484;48.928;10.066;2023-04-25T08:11:52;2.20;;;2.00;;
8895;SDS011;4484;48.928;10.066;2023-04-25T08:14:24;3.13;;;2.57;;
8895;SDS011;4484;48.928;10.066;2023-04-25T08:16:51;2.83;;;2.53;;
8895;SDS011;4484;48.928;10.066;2023-04-25T08:19:19;2.33;;;2.00;;
8895;SDS011;4484;48.928;10.066;2023-04-25T08:21:46;3.10;;;1.83;;
8895;SDS011;4484;48.928;10.066;2023-04-25T08:24:18;1.80;;;1.70;;
8895;SDS011;4484;48.928;10.066;2023-04-25T08:26:45;2.47;;;1.87;;
8895;SDS011;4484;48.928;10.066;2023-04-25T08:29:15;2.20;;;2.00;;
8895;SDS011;4484;48.928;10.066;2023-04-25T08:31:42;2.50;;;2.30;;
8895;SDS011;4484;48.928;10.066;2023-04-25T08:34:09;2.57;;;1.90;;
8895;SDS011;4484;48.928;10.066;2023-04-25T08:36:46;2.00;;;1.63;;
8895;SDS011;4484;48.928;10.066;2023-04-25T08:39:30;2.43;;;1.80;;
8895;SDS011;4484;48.928;10.066;2023-04-25T08:42:17;2.33;;;1.60;;
8895;SDS011;4484;48.928;10.066;2023-04-25T08:44:45;2.20;;;1.93;;
8895;SDS011;4484;48.928;10.066;2023-04-25T08:47:13;1.90;;;1.70;;
8895;SDS011;4484;48.928;10.066;2023-04-25T08:49:45;2.10;;;1.90;;
8895;SDS011;4484;48.928;10.066;2023-04-25T08:52:14;3.30;;;2.03;;
8895;SDS011;4484;48.928;10.066;2023-04-25T08:54:46;2.60;;;2.23;;
8895;SDS011;4484;48.928;10.066;2023-04-25T08:57:16;3.33;;;2.50;;
8895;SDS011;4484;48.928;10.066;2023-04-25T08:59:45;2.50;;;2.13;;
8895;SDS011;4484;48.928;10.066;2023-04-25T09:02:14;2.70;;;2.40;;
8895;SDS011;4484;48.928;10.066;2023-04-25T09:04:46;3.63;;;2.40;;
8895;SDS011;4484;48.928;10.066;2023-04-25T09:07:13;2.77;;;2.17;;
8895;SDS011;4484;48.928;10.066;2023-04-25T09:09:44;2.53;;;2.33;;
8895;SDS011;4484;48.928;10.066;2023-04-25T09:12:13;2.77;;;2.57;;
8895;SDS011;4484;48.928;10.066;2023-04-25T09:14:40;2.80;;;2.17;;
8895;SDS011;4484;48.928;10.066;2023-04-25T09:17:25;4.43;;;2.47;;
8895;SDS011;4484;48.928;10.066;2023-04-25T09:19:53;3.10;;;2.50;;
8895;SDS011;4484;48.928;10.066;2023-04-25T09:22:25;2.50;;;2.30;;
8895;SDS011;4484;48.928;10.066;2023-04-25T09:24:52;2.63;;;2.33;;
8895;SDS011;4484;48.928;10.066;2023-04-25T09:27:22;3.13;;;2.33;;
8895;SDS011;4484;48.928;10.066;2023-04-25T09:29:58;3.90;;;2.33;;
8895;SDS011;4484;48.928;10.066;2023-04-25T09:32:44;2.67;;;2.47;;
8895;SDS011;4484;48.928;10.066;2023-04-25T09:35:11;2.83;;;2.50;;
8895;SDS011;4484;48.928;10.066;2023-04-25T09:37:51;3.57;;;2.80;;
8895;SDS011;4484;48.928;10.066;2023-04-25T09:40:51;2.93;;;2.70;;
8895;SDS011;4484;48.928;10.066;2023-04-25T09:43:26;5.27;;;3.20;;
8895;SDS011;4484;48.928;10.066;2023-04-25T09:45:55;4.63;;;3.33;;
8895;SDS011;4484;48.928;10.066;2023-04-25T09:48:26;4.90;;;3.67;;
8895;SDS011;4484;48.928;10.066;2023-04-25T09:53:34;4.33;;;3.57;;
8895;SDS011;4484;48.928;10.066;2023-04-25T09:56:22;5.17;;;3.47;;
8895;SDS011;4484;48.928;10.066;2023-04-25T09:58:51;4.73;;;3.40;;
8895;SDS011;4484;48.928;10.066;2023-04-25T10:01:21;4.17;;;3.20;;
8895;SDS011;4484;48.928;10.066;2023-04-25T10:04:01;5.33;;;3.40;;
8895;SDS011;4484;48.928;10.066;2023-04-25T10:06:42;3.27;;;2.80;;
8895;SDS011;4484;48.928;10.066;2023-04-25T10:09:10;3.80;;;3.40;;
8895;SDS011;4484;48.928;10.066;2023-04-25T10:11:38;3.97;;;3.23;;
8895;SDS011;4484;48.928;10.066;2023-04-25T10:14:06;3.80;;;3.10;;
8895;SDS011;4484;48.928;10.066;2023-04-25T10:16:33;5.47;;;3.30;;
8895;SDS011;4484;48.928;10.066;2023-04-25T10:19:00;4.27;;;3.03;;
8895;SDS011;4484;48.928;10.066;2023-04-25T10:21:29;3.57;;;3.00;;
8895;SDS011;4484;48.928;10.066;2023-04-25T10:23:59;4.47;;;3.23;;
8895;SDS011;4484;48.928;10.066;2023-04-25T10:26:26;5.53;;;3.70;;
8895;SDS011;4484;48.928;10.066;2023-04-25T10:28:57;4.33;;;3.00;;
8895;SDS011;4484;48.928;10.066;2023-04-25T10:31:25;4.37;;;2.97;;
8895;SDS011;4484;48.928;10.066;2023-04-25T10:33:53;3.93;;;2.83;;
8895;SDS011;4484;48.928;10.066;2023-04-25T10:36:23;2.70;;;2.33;;
8895;SDS011;4484;48.928;10.066;2023-04-25T10:38:53;3.43;;;2.90;;
8895;SDS011;4484;48.928;10.066;2023-04-25T10:41:20;5.90;;;3.70;;
8895;SDS011;4484;48.928;10.066;2023-04-25T10:43:49;3.90;;;3.33;;
8895;SDS011;4484;48.928;10.066;2023-04-25T10:46:25;3.43;;;2.50;;
8895;SDS011;4484;48.928;10.066;2023-04-25T10:48:54;4.20;;;2.93;;
8895;SDS011;4484;48.928;10.066;2023-04-25T10:51:26;4.20;;;2.00;;
8895;SDS011;4484;48.928;10.066;2023-04-25T10:54:03;3.50;;;2.30;;
8895;SDS011;4484;48.928;10.066;2023-04-25T11:01:45;3.07;;;2.50;;
8895;SDS011;4484;48.928;10.066;2023-04-25T11:04:20;3.50;;;2.00;;
8895;SDS011;4484;48.928;10.066;2023-04-25T11:06:54;4.23;;;2.40;;
8895;SDS011;4484;48.928;10.066;2023-04-25T11:09:38;3.70;;;2.33;;
8895;SDS011;4484;48.928;10.066;2023-04-25T11:12:09;4.10;;;2.10;;
8895;SDS011;4484;48.928;10.066;2023-04-25T11:14:58;2.40;;;1.67;;
8895;SDS011;4484;48.928;10.066;2023-04-25T11:17:29;3.27;;;1.80;;
8895;SDS011;4484;48.928;10.066;2023-04-25T11:19:56;2.43;;;2.10;;
8895;SDS011;4484;48.928;10.066;2023-04-25T11:22:23;3.67;;;2.00;;
8895;SDS011;4484;48.928;10.066;2023-04-25T11:24:50;2.97;;;1.83;;
8895;SDS011;4484;48.928;10.066;2023-04-25T11:27:17;2.20;;;1.90;;
8895;SDS011;4484;48.928;10.066;2023-04-25T11:29:44;1.73;;;1.63;;
8895;SDS011;4484;48.928;10.066;2023-04-25T11:32:15;3.97;;;1.93;;
8895;SDS011;4484;48.928;10.066;2023-04-25T11:34:43;3.17;;;2.00;;
8895;SDS011;4484;48.928;10.066;2023-04-25T11:37:14;2.10;;;1.90;;
8895;SDS011;4484;48.928;10.066;2023-04-25T11:39:44;1.67;;;1.50;;
8895;SDS011;4484;48.928;10.066;2023-04-25T11:42:14;4.17;;;1.87;;
8895;SDS011;4484;48.928;10.066;2023-04-25T11:44:41;2.43;;;1.90;;
8895;SDS011;4484;48.928;10.066;2023-04-25T11:47:08;2.83;;;1.67;;
8895;SDS011;4484;48.928;10.066;2023-04-25T11:49:35;2.27;;;1.60;;
8895;SDS011;4484;48.928;10.066;2023-04-25T11:52:02;3.50;;;1.70;;
8895;SDS011;4484;48.928;10.066;2023-04-25T11:54:29;1.97;;;1.60;;
8895;SDS011;4484;48.928;10.066;2023-04-25T11:56:56;2.63;;;1.40;;
8895;SDS011;4484;48.928;10.066;2023-04-25T11:59:23;1.83;;;1.60;;
8895;SDS011;4484;48.928;10.066;2023-04-25T12:01:51;2.40;;;1.50;;
8895;SDS011;4484;48.928;10.066;2023-04-25T12:04:19;3.57;;;1.97;;
8895;SDS011;4484;48.928;10.066;2023-04-25T12:06:50;2.60;;;1.60;;
8895;SDS011;4484;48.928;10.066;2023-04-25T12:09:32;1.80;;;1.70;;
8895;SDS011;4484;48.928;10.066;2023-04-25T12:12:00;5.27;;;2.30;;
8895;SDS011;4484;48.928;10.066;2023-04-25T12:14:31;2.30;;;2.03;;
8895;SDS011;4484;48.928;10.066;2023-04-25T12:16:59;3.10;;;1.60;;
8895;SDS011;4484;48.928;10.066;2023-04-25T12:19:34;6.30;;;1.60;;
8895;SDS011;4484;48.928;10.066;2023-04-25T12:22:02;6.40;;;2.30;;
8895;SDS011;4484;48.928;10.066;2023-04-25T12:24:44;5.80;;;1.90;;
8895;SDS011;4484;48.928;10.066;2023-04-25T12:27:13;4.13;;;2.00;;
8895;SDS011;4484;48.928;10.066;2023-04-25T12:29:52;2.60;;;1.37;;
8895;SDS011;4484;48.928;10.066;2023-04-25T12:32:20;2.83;;;1.57;;
8895;SDS011;4484;48.928;10.066;2023-04-25T12:34:47;3.87;;;2.37;;
8895;SDS011;4484;48.928;10.066;2023-04-25T12:37:14;3.67;;;2.60;;
8895;SDS011;4484;48.928;10.066;2023-04-25T12:39:41;5.77;;;3.00;;
8895;SDS011;4484;48.928;10.066;2023-04-25T12:42:08;4.67;;;2.70;;
8895;SDS011;4484;48.928;10.066;2023-04-25T12:44:38;5.03;;;2.90;;
8895;SDS011;4484;48.928;10.066;2023-04-25T12:47:05;4.63;;;3.17;;
8895;SDS011;4484;48.928;10.066;2023-04-25T12:49:32;3.17;;;2.60;;
8895;SDS011;4484;48.928;10.066;2023-04-25T12:51:59;4.30;;;2.60;;
8895;SDS011;4484;48.928;10.066;2023-04-25T12:54:26;3.97;;;2.43;;
8895;SDS011;4484;48.928;10.066;2023-04-25T12:56:52;5.00;;;2.93;;
8895;SDS011;4484;48.928;10.066;2023-04-25T12:59:19;3.20;;;2.40;;
8895;SDS011;4484;48.928;10.066;2023-04-25T13:01:47;3.87;;;2.60;;
8895;SDS011;4484;48.928;10.066;2023-04-25T13:04:14;4.93;;;2.57;;
8895;SDS011;4484;48.928;10.066;2023-04-25T13:06:42;3.10;;;2.33;;
8895;SDS011;4484;48.928;10.066;2023-04-25T13:09:09;2.73;;;2.40;;
8895;SDS011;4484;48.928;10.066;2023-04-25T13:11:38;4.33;;;2.23;;
8895;SDS011;4484;48.928;10.066;2023-04-25T13:14:06;3.13;;;2.67;;
8895;SDS011;4484;48.928;10.066;2023-04-25T13:16:33;2.77;;;2.03;;
8895;SDS011;4484;48.928;10.066;2023-04-25T13:19:00;3.50;;;2.27;;
8895;SDS011;4484;48.928;10.066;2023-04-25T13:21:29;3.90;;;2.10;;
8895;SDS011;4484;48.928;10.066;2023-04-25T13:23:58;3.47;;;2.60;;
8895;SDS011;4484;48.928;10.066;2023-04-25T13:26:25;3.10;;;2.47;;
8895;SDS011;4484;48.928;10.066;2023-04-25T13:28:52;7.57;;;3.13;;
8895;SDS011;4484;48.928;10.066;2023-04-25T13:31:19;3.83;;;3.13;;
8895;SDS011;4484;48.928;10.066;2023-04-25T13:33:46;4.07;;;2.47;;
8895;SDS011;4484;48.928;10.066;2023-04-25T13:36:12;5.90;;;2.17;;
8895;SDS011;4484;48.928;10.066;2023-04-25T13:38:39;4.23;;;2.50;;
8895;SDS011;4484;48.928;10.066;2023-04-25T13:41:09;4.17;;;2.60;;
8895;SDS011;4484;48.928;10.066;2023-04-25T13:43:40;4.90;;;2.67;;
8895;SDS011;4484;48.928;10.066;2023-04-25T13:46:06;3.83;;;2.47;;
8895;SDS011;4484;48.928;10.066;2023-04-25T13:48:37;2.33;;;2.10;;
8895;SDS011;4484;48.928;10.066;2023-04-25T13:51:04;5.00;;;2.80;;
8895;SDS011;4484;48.928;10.066;2023-04-25T13:53:31;2.93;;;2.30;;
8895;SDS011;4484;48.928;10.066;2023-04-25T13:55:58;3.93;;;1.70;;
8895;SDS011;4484;48.928;10.066;2023-04-25T13:58:25;2.47;;;1.37;;
8895;SDS011;4484;48.928;10.066;2023-04-25T14:00:51;1.77;;;1.00;;
8895;SDS011;4484;48.928;10.066;2023-04-25T14:03:19;1.80;;;1.40;;
8895;SDS011;4484;48.928;10.066;2023-04-25T14:05:46;1.67;;;1.20;;
8895;SDS011;4484;48.928;10.066;2023-04-25T14:08:13;1.93;;;1.20;;
8895;SDS011;4484;48.928;10.066;2023-04-25T14:10:40;1.53;;;0.90;;
8895;SDS011;4484;48.928;10.066;2023-04-25T14:13:07;2.53;;;1.20;;
8895;SDS011;4484;48.928;10.066;2023-04-25T14:15:36;1.07;;;0.87;;
8895;SDS011;4484;48.928;10.066;2023-04-25T14:18:03;4.00;;;1.27;;
8895;SDS011;4484;48.928;10.066;2023-04-25T14:20:30;3.30;;;1.23;;
8895;SDS011;4484;48.928;10.066;2023-04-25T14:22:57;1.33;;;1.23;;
8895;SDS011;4484;48.928;10.066;2023-04-25T14:25:24;2.40;;;1.63;;
8895;SDS011;4484;48.928;10.066;2023-04-25T14:27:52;1.57;;;1.37;;
8895;SDS011;4484;48.928;10.066;2023-04-25T14:30:19;2.67;;;1.30;;
8895;SDS011;4484;48.928;10.066;2023-04-25T14:32:50;1.77;;;1.50;;
8895;SDS011;4484;48.928;10.066;2023-04-25T14:35:17;1.60;;;1.50;;
8895;SDS011;4484;48.928;10.066;2023-04-25T14:37:44;2.07;;;1.73;;
8895;SDS011;4484;48.928;10.066;2023-04-25T14:40:12;1.83;;;1.53;;
8895;SDS011;4484;48.928;10.066;2023-04-25T14:42:41;1.50;;;1.40;;
8895;SDS011;4484;48.928;10.066;2023-04-25T14:45:08;6.37;;;2.40;;
8895;SDS011;4484;48.928;10.066;2023-04-25T14:47:38;1.93;;;1.67;;
8895;SDS011;4484;48.928;10.066;2023-04-25T14:50:06;1.60;;;1.50;;
8895;SDS011;4484;48.928;10.066;2023-04-25T14:52:34;1.90;;;1.47;;
8895;SDS011;4484;48.928;10.066;2023-04-25T14:55:01;2.60;;;1.63;;
8895;SDS011;4484;48.928;10.066;2023-04-25T14:57:32;1.40;;;1.20;;
8895;SDS011;4484;48.928;10.066;2023-04-25T14:59:59;1.87;;;1.20;;
8895;SDS011;4484;48.928;10.066;2023-04-25T15:02:27;1.67;;;1.53;;
8895;SDS011;4484;48.928;10.066;2023-04-25T15:04:54;2.70;;;1.50;;
8895;SDS011;4484;48.928;10.066;2023-04-25T15:07:22;2.17;;;1.80;;
8895;SDS011;4484;48.928;10.066;2023-04-25T15:09:49;2.07;;;1.63;;
8895;SDS011;4484;48.928;10.066;2023-04-25T15:12:16;2.10;;;1.50;;
8895;SDS011;4484;48.928;10.066;2023-04-25T15:14:42;3.53;;;2.37;;
8895;SDS011;4484;48.928;10.066;2023-04-25T15:17:09;3.83;;;2.77;;
8895;SDS011;4484;48.928;10.066;2023-04-25T15:19:39;2.43;;;2.00;;
8895;SDS011;4484;48.928;10.066;2023-04-25T15:22:06;2.50;;;1.83;;
8895;SDS011;4484;48.928;10.066;2023-04-25T15:24:33;2.40;;;1.90;;
8895;SDS011;4484;48.928;10.066;2023-04-25T15:27:00;3.07;;;1.80;;
8895;SDS011;4484;48.928;10.066;2023-04-25T15:29:27;3.27;;;1.80;;
8895;SDS011;4484;48.928;10.066;2023-04-25T15:31:54;2.00;;;1.53;;